Pflugerville's Hourly Summary for Sunday, July 8, 2018
Hour Temp
(f)
RH
(%)
Solar Rad.
(MJ/m2)
Rainfall
(in)
Wind
(mph)
7/8/2018 12:00 AM 74 88 0 0 0.04
7/8/2018 1:00 AM 74 91 0 0 0.04
7/8/2018 2:00 AM 73 91 0 0 0.05
7/8/2018 3:00 AM 73 95 0 0 0.05
7/8/2018 4:00 AM 72 95 0 0 0.91
7/8/2018 5:00 AM 72 96 0 0 0.91
7/8/2018 6:00 AM 72 97 0.01 0 1.11
7/8/2018 7:00 AM 72 97 0.21 0 1.29
7/8/2018 8:00 AM 74 94 0.43 0 2.82
7/8/2018 9:00 AM 78 88 0.81 0 2.82
7/8/2018 10:00 AM 81 76 1.63 0 1.06
7/8/2018 11:00 AM 83 69 2.06 0 1.78
7/8/2018 12:00 PM 84 61 2.57 0 1.79
7/8/2018 1:00 PM 86 56 3.04 0 3.04
7/8/2018 2:00 PM 88 53 3.09 0 3.04
7/8/2018 3:00 PM 88 48 3.09 0 3.47
7/8/2018 4:00 PM 87 48 1.72 0 3.47
7/8/2018 5:00 PM 90 45 2.61 0 2.08
7/8/2018 6:00 PM 90 56 1.61 0 4.56
7/8/2018 7:00 PM 85 67 0.79 0 8.85
7/8/2018 8:00 PM 78 80 0.08 0 8.85
7/8/2018 9:00 PM 77 80 0.02 0 0.87
7/8/2018 10:00 PM 77 83 0 0 0.93
7/8/2018 11:00 PM 77 85 0 0 1.46
Data Summary 79 76 23.77 0.00 2.30